createdAt,value
2023-03-11T00:00:36.724Z,0.90
2023-03-11T00:03:06.889Z,1.13
2023-03-11T00:05:38.588Z,0.98
2023-03-11T00:08:08.231Z,0.85
2023-03-11T00:10:39.302Z,0.90
2023-03-11T00:13:10.164Z,1.00
2023-03-11T00:15:40.606Z,1.17
2023-03-11T00:18:08.334Z,1.10
2023-03-11T00:20:38.390Z,1.20
2023-03-11T00:23:08.458Z,1.23
2023-03-11T00:25:38.453Z,1.20
2023-03-11T00:28:11.237Z,1.08
2023-03-11T00:30:40.845Z,0.90
2023-03-11T00:33:10.799Z,0.88
2023-03-11T00:35:41.226Z,0.90
2023-03-11T00:38:13.058Z,0.93
2023-03-11T00:40:41.431Z,1.08
2023-03-11T00:43:09.105Z,1.05
2023-03-11T00:45:37.395Z,0.82
2023-03-11T00:48:05.937Z,1.10
2023-03-11T00:50:36.245Z,0.95
2023-03-11T00:53:05.011Z,1.30
2023-03-11T00:55:34.704Z,1.40
2023-03-11T00:58:06.588Z,1.55
2023-03-11T01:00:41.734Z,1.50
2023-03-11T01:03:09.333Z,2.20
2023-03-11T01:05:37.010Z,2.17
2023-03-11T01:08:05.072Z,1.80
2023-03-11T01:10:34.833Z,1.73
2023-03-11T01:13:03.504Z,1.80
2023-03-11T01:15:36.843Z,1.83
2023-03-11T01:18:05.659Z,1.98
2023-03-11T01:20:35.337Z,1.73
2023-03-11T01:23:03.161Z,2.33
2023-03-11T01:25:30.826Z,1.93
2023-03-11T01:27:59.523Z,2.20
2023-03-11T01:30:28.642Z,2.00
2023-03-11T01:32:58.233Z,2.00
2023-03-11T01:35:28.068Z,1.80
2023-03-11T01:37:56.462Z,2.07
2023-03-11T01:40:29.363Z,1.80
2023-03-11T01:42:59.979Z,1.67
2023-03-11T01:46:03.156Z,2.40
2023-03-11T01:48:32.124Z,2.08
2023-03-11T01:50:59.955Z,2.10
2023-03-11T01:53:27.665Z,2.00
2023-03-11T01:55:55.799Z,2.03
2023-03-11T01:58:30.992Z,2.17
2023-03-11T02:01:00.451Z,2.30
2023-03-11T02:03:31.730Z,2.30
2023-03-11T02:06:02.801Z,2.35
2023-03-11T02:08:34.226Z,2.40
2023-03-11T02:11:06.265Z,2.70
2023-03-11T02:13:35.432Z,2.80
2023-03-11T02:16:04.723Z,2.70
2023-03-11T02:18:33.008Z,2.80
2023-03-11T02:21:19.277Z,2.45
2023-03-11T02:23:52.299Z,3.10
2023-03-11T02:26:31.086Z,2.80
2023-03-11T02:29:00.699Z,2.57
2023-03-11T02:31:29.757Z,2.83
2023-03-11T02:34:01.811Z,2.75
2023-03-11T02:36:41.771Z,2.20
2023-03-11T02:39:12.754Z,2.60
2023-03-11T02:41:45.800Z,2.80
2023-03-11T02:44:16.464Z,2.70
2023-03-11T02:46:45.451Z,2.80
2023-03-11T02:49:15.027Z,2.70
2023-03-11T02:51:42.596Z,2.55
2023-03-11T02:54:10.223Z,2.70
2023-03-11T02:56:38.408Z,2.50
2023-03-11T02:59:06.141Z,2.50
2023-03-11T03:01:33.787Z,2.50
2023-03-11T03:04:01.710Z,2.85
2023-03-11T03:06:32.845Z,2.30
2023-03-11T03:09:00.422Z,2.45
2023-03-11T03:11:28.266Z,2.78
2023-03-11T03:13:56.103Z,2.42
2023-03-11T03:16:24.411Z,2.45
2023-03-11T03:18:52.721Z,2.80
2023-03-11T03:21:20.633Z,2.47
2023-03-11T03:23:48.233Z,2.40
2023-03-11T03:26:16.761Z,2.40
2023-03-11T03:28:47.844Z,3.10
2023-03-11T03:31:15.646Z,2.80
2023-03-11T03:33:44.294Z,2.63
2023-03-11T03:36:14.176Z,2.38
2023-03-11T03:38:58.059Z,2.78
2023-03-11T03:41:30.033Z,2.97
2023-03-11T03:43:59.112Z,2.80
2023-03-11T03:46:27.004Z,2.70
2023-03-11T03:48:58.850Z,2.50
2023-03-11T03:51:27.444Z,2.60
2023-03-11T03:54:02.325Z,2.47
2023-03-11T03:56:30.985Z,2.40
2023-03-11T03:58:58.724Z,2.67
2023-03-11T04:01:31.186Z,2.25
2023-03-11T04:03:59.361Z,2.78
2023-03-11T04:06:28.212Z,2.50
2023-03-11T04:09:03.160Z,2.50
2023-03-11T04:11:33.797Z,2.53
2023-03-11T04:14:03.288Z,2.72
2023-03-11T04:16:33.188Z,2.60
2023-03-11T04:19:05.935Z,2.70
2023-03-11T04:21:34.608Z,2.90
2023-03-11T04:24:03.967Z,2.40
2023-03-11T04:26:36.096Z,2.75
2023-03-11T04:29:05.578Z,2.30
2023-03-11T04:31:39.014Z,2.80
2023-03-11T04:34:08.043Z,2.37
2023-03-11T04:36:37.325Z,2.33
2023-03-11T04:39:05.931Z,2.63
2023-03-11T04:41:40.017Z,2.67
2023-03-11T04:44:09.262Z,2.70
2023-03-11T04:46:36.885Z,2.57
2023-03-11T04:49:07.282Z,2.80
2023-03-11T04:51:34.947Z,2.60
2023-03-11T04:54:02.545Z,3.10
2023-03-11T04:56:31.336Z,2.58
2023-03-11T04:58:59.183Z,2.37
2023-03-11T05:01:27.745Z,2.55
2023-03-11T05:03:56.720Z,2.58
2023-03-11T05:06:24.447Z,2.35
2023-03-11T05:08:52.292Z,2.60
2023-03-11T05:11:20.011Z,2.70
2023-03-11T05:13:48.742Z,2.80
2023-03-11T05:16:17.159Z,2.38
2023-03-11T05:18:44.756Z,2.30
2023-03-11T05:21:15.208Z,2.80
2023-03-11T05:23:42.945Z,2.40
2023-03-11T05:26:10.819Z,2.35
2023-03-11T05:28:40.561Z,2.38
2023-03-11T05:31:10.183Z,3.00
2023-03-11T05:33:39.135Z,2.72
2023-03-11T05:36:10.321Z,2.27
2023-03-11T05:38:41.431Z,2.33
2023-03-11T05:41:09.569Z,2.65
2023-03-11T05:43:37.653Z,2.75
2023-03-11T05:46:05.443Z,2.55
2023-03-11T05:48:33.133Z,2.50
2023-03-11T05:51:01.170Z,2.60
2023-03-11T05:53:28.905Z,2.78
2023-03-11T05:55:57.999Z,2.08
2023-03-11T05:58:31.019Z,2.00
2023-03-11T06:01:01.899Z,2.20
2023-03-11T06:03:29.704Z,2.00
2023-03-11T06:05:57.247Z,2.58
2023-03-11T06:08:24.894Z,2.55
2023-03-11T06:10:52.451Z,2.22
2023-03-11T06:13:21.388Z,2.73
2023-03-11T06:15:52.134Z,2.80
2023-03-11T06:18:21.657Z,2.50
2023-03-11T06:20:49.556Z,2.60
2023-03-11T06:23:24.605Z,2.80
2023-03-11T06:26:01.289Z,3.37
2023-03-11T06:28:32.088Z,3.35
2023-03-11T06:31:16.573Z,3.80
2023-03-11T06:33:44.765Z,3.28
2023-03-11T06:36:15.364Z,3.53
2023-03-11T06:38:43.394Z,3.23
2023-03-11T06:41:11.149Z,3.30
2023-03-11T06:43:39.507Z,3.45
2023-03-11T06:46:17.154Z,3.13
2023-03-11T06:48:46.431Z,3.30
2023-03-11T06:51:16.579Z,2.73
2023-03-11T06:53:44.786Z,3.35
2023-03-11T06:56:13.889Z,3.50
2023-03-11T06:58:49.410Z,3.50
2023-03-11T07:01:23.402Z,2.80
2023-03-11T07:03:52.147Z,3.10
2023-03-11T07:06:26.310Z,3.30
2023-03-11T07:08:59.899Z,3.35
2023-03-11T07:11:28.889Z,3.20
2023-03-11T07:14:06.810Z,3.13
2023-03-11T07:16:39.457Z,3.20
2023-03-11T07:19:12.843Z,3.70
2023-03-11T07:21:41.088Z,3.08
2023-03-11T07:24:11.651Z,3.08
2023-03-11T07:26:39.455Z,3.63
2023-03-11T07:29:07.167Z,3.00
2023-03-11T07:31:35.306Z,3.90
2023-03-11T07:34:06.118Z,3.15
2023-03-11T07:36:33.753Z,3.10
2023-03-11T07:39:04.758Z,3.00
2023-03-11T07:41:34.633Z,3.00
2023-03-11T07:44:03.743Z,3.47
2023-03-11T07:46:32.171Z,2.97
2023-03-11T07:49:02.270Z,3.08
2023-03-11T07:51:32.500Z,3.13
2023-03-11T07:54:01.133Z,3.43
2023-03-11T07:56:31.153Z,3.58
2023-03-11T07:59:00.650Z,3.15
2023-03-11T08:01:36.131Z,3.20
2023-03-11T08:04:05.841Z,2.92
2023-03-11T08:06:35.366Z,2.70
2023-03-11T08:09:06.412Z,3.17
2023-03-11T08:11:35.095Z,3.42
2023-03-11T08:14:03.342Z,3.45
2023-03-11T08:16:31.913Z,3.35
2023-03-11T08:18:59.694Z,3.03
2023-03-11T08:21:31.984Z,3.55
2023-03-11T08:24:01.994Z,3.30
2023-03-11T08:26:31.175Z,3.70
2023-03-11T08:28:59.749Z,3.05
2023-03-11T08:31:30.281Z,3.67
2023-03-11T08:34:01.526Z,3.55
2023-03-11T08:36:30.035Z,3.47
2023-03-11T08:38:57.993Z,3.15
2023-03-11T08:41:26.686Z,3.20
2023-03-11T08:43:54.758Z,3.10
2023-03-11T08:46:37.499Z,2.88
2023-03-11T08:49:06.253Z,2.67
2023-03-11T08:51:35.290Z,2.30
2023-03-11T08:54:04.111Z,2.10
2023-03-11T08:56:31.872Z,2.13
2023-03-11T08:58:59.698Z,3.05
2023-03-11T09:01:28.869Z,3.22
2023-03-11T09:03:56.586Z,3.28
2023-03-11T09:06:24.627Z,3.00
2023-03-11T09:08:52.427Z,3.50
2023-03-11T09:11:22.124Z,3.10
2023-03-11T09:13:50.153Z,3.28
2023-03-11T09:16:23.326Z,3.00
2023-03-11T09:18:51.123Z,2.63
2023-03-11T09:21:19.178Z,3.00
2023-03-11T09:23:47.285Z,2.92
2023-03-11T09:26:15.801Z,3.40
2023-03-11T09:28:43.554Z,2.85
2023-03-11T09:31:11.274Z,2.97
2023-03-11T09:33:40.426Z,2.90
2023-03-11T09:36:12.354Z,2.80
2023-03-11T09:38:39.903Z,3.00
2023-03-11T09:41:27.936Z,2.75
2023-03-11T09:44:03.235Z,2.65
2023-03-11T09:46:49.667Z,2.80
2023-03-11T09:50:04.909Z,2.45
2023-03-11T09:52:51.695Z,2.67
2023-03-11T09:55:39.721Z,2.92
2023-03-11T09:58:42.025Z,2.55
2023-03-11T10:01:16.294Z,2.30
2023-03-11T10:03:44.736Z,2.17
2023-03-11T10:06:16.828Z,2.58
2023-03-11T10:08:52.491Z,2.70
2023-03-11T10:11:48.767Z,2.63
2023-03-11T10:14:35.461Z,2.07
2023-03-11T10:17:36.853Z,2.47
2023-03-11T10:20:10.590Z,3.30
2023-03-11T10:22:50.595Z,2.50
2023-03-11T10:25:21.196Z,2.63
2023-03-11T10:28:05.694Z,2.10
2023-03-11T10:31:06.146Z,2.08
2023-03-11T10:33:53.104Z,2.00
2023-03-11T10:36:24.452Z,1.80
2023-03-11T10:38:54.085Z,2.10
2023-03-11T10:41:37.215Z,1.60
2023-03-11T10:44:07.368Z,1.95
2023-03-11T10:46:34.878Z,2.00
2023-03-11T10:49:02.476Z,1.90
2023-03-11T10:51:35.736Z,2.10
2023-03-11T10:54:03.983Z,2.00
2023-03-11T10:56:35.078Z,2.17
2023-03-11T10:59:05.317Z,1.60
2023-03-11T11:01:33.027Z,4.00
2023-03-11T11:04:01.829Z,1.85
2023-03-11T11:06:35.114Z,2.17
2023-03-11T11:09:14.506Z,1.65
2023-03-11T11:11:43.382Z,1.63
2023-03-11T11:14:10.928Z,1.95
2023-03-11T11:16:39.090Z,2.00
2023-03-11T11:19:12.294Z,1.30
2023-03-11T11:21:48.822Z,1.35
2023-03-11T11:24:28.465Z,1.10
2023-03-11T11:27:22.739Z,1.10
2023-03-11T11:30:23.413Z,0.95
2023-03-11T11:32:53.864Z,1.00
2023-03-11T11:35:24.753Z,1.00
2023-03-11T11:37:55.788Z,0.50
2023-03-11T11:40:33.358Z,0.95
2023-03-11T11:43:44.363Z,0.75
2023-03-11T11:46:20.432Z,0.80
2023-03-11T11:49:09.124Z,0.93
2023-03-11T11:52:00.990Z,0.65
2023-03-11T11:54:44.051Z,0.70
2023-03-11T11:57:16.990Z,0.90
2023-03-11T11:59:45.288Z,1.17
2023-03-11T12:02:52.750Z,0.70
2023-03-11T12:05:30.970Z,0.93
2023-03-11T12:08:10.455Z,0.82
2023-03-11T12:10:50.172Z,1.60
2023-03-11T12:13:20.660Z,0.83
2023-03-11T12:15:56.632Z,0.98
2023-03-11T12:18:38.662Z,1.10
2023-03-11T12:21:47.692Z,1.05
2023-03-11T12:24:24.266Z,0.80
2023-03-11T12:26:54.730Z,0.87
2023-03-11T12:29:39.938Z,1.70
2023-03-11T12:32:07.900Z,0.70
2023-03-11T12:34:36.138Z,1.20
2023-03-11T12:37:14.784Z,0.90
2023-03-11T12:39:42.445Z,1.00
2023-03-11T12:42:27.107Z,0.60
2023-03-11T12:44:54.759Z,0.68
2023-03-11T12:47:29.263Z,0.73
2023-03-11T12:50:35.539Z,0.80
2023-03-11T12:53:03.996Z,0.60
2023-03-11T12:55:34.610Z,0.80
2023-03-11T12:58:33.625Z,1.23
2023-03-11T13:01:13.769Z,1.23
2023-03-11T13:03:51.461Z,1.10
2023-03-11T13:06:31.901Z,1.10
2023-03-11T13:09:00.805Z,1.00
2023-03-11T13:11:34.149Z,0.90
2023-03-11T13:14:30.976Z,0.82
2023-03-11T13:17:32.495Z,0.80
2023-03-11T13:20:00.154Z,1.20
2023-03-11T13:23:04.401Z,1.08
2023-03-11T13:25:38.496Z,0.98
2023-03-11T13:28:33.696Z,1.27
2023-03-11T13:31:38.898Z,1.00
2023-03-11T13:34:17.372Z,0.97
2023-03-11T13:36:47.903Z,1.40
2023-03-11T13:39:44.592Z,1.17
2023-03-11T13:42:24.248Z,1.00
2023-03-11T13:44:52.140Z,1.17
2023-03-11T13:47:21.258Z,0.90
2023-03-11T13:50:23.879Z,1.05
2023-03-11T13:52:54.199Z,0.98
2023-03-11T13:55:26.990Z,0.93
2023-03-11T13:57:58.028Z,1.00
2023-03-11T14:00:30.938Z,1.00
2023-03-11T14:03:02.709Z,0.80
2023-03-11T14:05:33.450Z,0.75
2023-03-11T14:08:24.380Z,1.08
2023-03-11T14:11:03.398Z,1.00
2023-03-11T14:13:38.763Z,0.97
2023-03-11T14:16:10.884Z,0.70
2023-03-11T14:19:03.475Z,0.70
2023-03-11T14:21:31.995Z,1.00
2023-03-11T14:24:00.394Z,0.73
2023-03-11T14:26:35.046Z,0.80
2023-03-11T14:29:09.026Z,1.00
2023-03-11T14:31:39.336Z,0.75
2023-03-11T14:34:25.473Z,0.60
2023-03-11T14:36:58.984Z,0.50
2023-03-11T14:39:29.737Z,0.67
2023-03-11T14:42:21.979Z,0.50
2023-03-11T14:45:01.902Z,0.80
2023-03-11T14:47:38.302Z,0.90
2023-03-11T14:50:10.350Z,0.75
2023-03-11T14:52:49.884Z,0.90
2023-03-11T14:55:29.439Z,0.90
2023-03-11T14:58:12.370Z,1.08
2023-03-11T15:00:56.313Z,0.98
2023-03-11T15:03:29.095Z,1.00
2023-03-11T15:06:00.451Z,1.13
2023-03-11T15:08:32.144Z,1.00
2023-03-11T15:11:10.736Z,0.82
2023-03-11T15:13:40.564Z,1.20
2023-03-11T15:16:21.590Z,1.15
2023-03-11T15:18:49.348Z,1.30
2023-03-11T15:21:20.065Z,1.00
2023-03-11T15:23:50.495Z,0.98
2023-03-11T15:26:30.066Z,1.00
2023-03-11T15:29:14.002Z,1.20
2023-03-11T15:31:44.943Z,1.00
2023-03-11T15:34:25.530Z,1.20
2023-03-11T15:37:01.628Z,2.83
2023-03-11T15:39:32.097Z,1.90
2023-03-11T15:42:03.835Z,1.70
2023-03-11T15:44:33.419Z,1.23
2023-03-11T15:47:01.002Z,1.35
2023-03-11T15:49:29.812Z,1.83
2023-03-11T15:52:02.249Z,2.40
2023-03-11T15:54:30.252Z,1.00
2023-03-11T15:57:01.198Z,1.53
2023-03-11T15:59:30.598Z,1.30
2023-03-11T16:01:59.582Z,2.40
2023-03-11T16:04:27.502Z,1.65
2023-03-11T16:07:08.630Z,2.08
2023-03-11T16:09:36.355Z,1.30
2023-03-11T16:12:17.162Z,1.20
2023-03-11T16:14:45.358Z,0.90
2023-03-11T16:17:15.187Z,1.02
2023-03-11T16:19:43.384Z,0.90
2023-03-11T16:22:17.759Z,1.00
2023-03-11T16:24:51.798Z,1.33
2023-03-11T16:27:19.761Z,1.20
2023-03-11T16:29:47.576Z,1.35
2023-03-11T16:32:15.359Z,1.15
2023-03-11T16:34:43.646Z,0.93
2023-03-11T16:37:15.355Z,0.95
2023-03-11T16:39:43.069Z,1.33
2023-03-11T16:42:10.907Z,0.90
2023-03-11T16:44:38.589Z,0.80
2023-03-11T16:47:06.352Z,0.70
2023-03-11T16:49:33.913Z,0.65
2023-03-11T16:52:01.614Z,1.10
2023-03-11T16:54:29.203Z,1.02
2023-03-11T16:56:56.999Z,0.70
2023-03-11T16:59:24.637Z,0.40
2023-03-11T17:01:52.507Z,0.70
2023-03-11T17:04:20.142Z,0.82
2023-03-11T17:06:48.029Z,0.85
2023-03-11T17:09:15.629Z,0.70
2023-03-11T17:11:43.197Z,0.53
2023-03-11T17:14:16.579Z,0.60
2023-03-11T17:16:45.256Z,0.50
2023-03-11T17:19:13.525Z,0.50
2023-03-11T17:21:41.236Z,0.60
2023-03-11T17:24:10.347Z,0.70
2023-03-11T17:26:38.653Z,0.50
2023-03-11T17:29:06.317Z,0.50
2023-03-11T17:31:34.027Z,0.60
2023-03-11T17:34:01.900Z,1.10
2023-03-11T17:36:29.603Z,0.50
2023-03-11T17:38:57.105Z,0.60
2023-03-11T17:41:24.971Z,1.77
2023-03-11T17:43:52.579Z,1.00
2023-03-11T17:46:20.770Z,0.82
2023-03-11T17:48:50.019Z,1.23
2023-03-11T17:51:23.515Z,0.80
2023-03-11T17:53:52.831Z,0.80
2023-03-11T17:56:21.990Z,0.60
2023-03-11T17:58:50.710Z,0.73
2023-03-11T18:01:21.817Z,0.40
2023-03-11T18:03:50.571Z,1.58
2023-03-11T18:06:19.721Z,0.52
2023-03-11T18:08:50.006Z,1.13
2023-03-11T18:11:21.285Z,1.00
2023-03-11T18:13:49.703Z,1.20
2023-03-11T18:16:26.469Z,0.70
2023-03-11T18:18:56.455Z,0.80
2023-03-11T18:21:27.144Z,0.98
2023-03-11T18:23:56.947Z,1.27
2023-03-11T18:26:26.672Z,0.90
2023-03-11T18:28:59.599Z,1.35
2023-03-11T18:31:28.428Z,1.00
2023-03-11T18:34:13.390Z,0.95
2023-03-11T18:36:42.186Z,1.08
2023-03-11T18:39:12.729Z,1.50
2023-03-11T18:41:41.175Z,0.93
2023-03-11T18:44:08.872Z,1.33
2023-03-11T18:46:36.678Z,1.30
2023-03-11T18:49:07.008Z,1.10
2023-03-11T18:51:34.803Z,0.90
2023-03-11T18:54:03.103Z,1.52
2023-03-11T18:56:33.781Z,1.50
2023-03-11T18:59:01.581Z,0.70
2023-03-11T19:01:29.550Z,0.70
2023-03-11T19:03:59.516Z,1.20
2023-03-11T19:06:29.073Z,1.50
2023-03-11T19:08:58.009Z,1.60
2023-03-11T19:11:26.438Z,1.10
2023-03-11T19:13:54.205Z,1.27
2023-03-11T19:16:24.707Z,1.20
2023-03-11T19:18:53.915Z,0.80
2023-03-11T19:21:22.595Z,0.80
2023-03-11T19:23:52.827Z,1.00
2023-03-11T19:26:25.740Z,1.02
2023-03-11T19:28:58.510Z,0.80
2023-03-11T19:31:26.106Z,1.00
2023-03-11T19:33:53.726Z,0.80
2023-03-11T19:36:21.366Z,1.05
2023-03-11T19:38:49.113Z,0.90
2023-03-11T19:41:19.425Z,1.07
2023-03-11T19:43:47.947Z,1.15
2023-03-11T19:46:21.032Z,1.08
2023-03-11T19:48:48.773Z,0.60
2023-03-11T19:51:17.435Z,1.10
2023-03-11T19:53:46.076Z,1.03
2023-03-11T19:56:13.833Z,1.05
2023-03-11T19:58:42.937Z,1.02
2023-03-11T20:01:18.453Z,1.33
2023-03-11T20:03:46.758Z,1.20
2023-03-11T20:06:16.647Z,1.10
2023-03-11T20:08:44.629Z,0.90
2023-03-11T20:11:12.600Z,0.95
2023-03-11T20:13:43.834Z,1.10
2023-03-11T20:16:17.278Z,1.00
2023-03-11T20:18:50.363Z,0.50
2023-03-11T20:21:18.866Z,0.60
2023-03-11T20:23:46.562Z,1.20
2023-03-11T20:26:16.395Z,0.88
2023-03-11T20:28:44.376Z,1.00
2023-03-11T20:31:23.169Z,0.87
2023-03-11T20:33:52.101Z,0.80
2023-03-11T20:36:22.762Z,0.60
2023-03-11T20:38:52.449Z,0.60
2023-03-11T20:41:20.640Z,0.60
2023-03-11T20:43:48.259Z,0.93
2023-03-11T20:46:15.945Z,0.80
2023-03-11T20:48:43.700Z,0.70
2023-03-11T20:51:19.628Z,1.15
2023-03-11T20:53:48.114Z,0.65
2023-03-11T20:56:18.870Z,1.00
2023-03-11T20:58:48.858Z,0.98
2023-03-11T21:01:24.375Z,1.00
2023-03-11T21:03:57.921Z,1.23
2023-03-11T21:06:31.428Z,0.98
2023-03-11T21:09:01.326Z,1.53
2023-03-11T21:11:29.205Z,1.70
2023-03-11T21:13:56.964Z,1.50
2023-03-11T21:16:24.705Z,1.92
2023-03-11T21:18:53.049Z,2.03
2023-03-11T21:21:21.136Z,1.90
2023-03-11T21:23:49.451Z,1.70
2023-03-11T21:26:17.937Z,2.30
2023-03-11T21:28:47.135Z,1.80
2023-03-11T21:31:20.575Z,2.40
2023-03-11T21:33:49.298Z,2.47
2023-03-11T21:36:17.779Z,1.90
2023-03-11T21:38:47.257Z,1.83
2023-03-11T21:41:18.565Z,2.00
2023-03-11T21:43:46.813Z,2.20
2023-03-11T21:46:17.385Z,1.90
2023-03-11T21:48:45.813Z,2.17
2023-03-11T21:51:14.449Z,2.17
2023-03-11T21:53:42.300Z,2.30
2023-03-11T21:56:10.331Z,2.00
2023-03-11T21:58:38.087Z,2.23
2023-03-11T22:01:07.147Z,2.40
2023-03-11T22:03:36.407Z,3.88
2023-03-11T22:06:07.339Z,3.22
2023-03-11T22:08:35.967Z,2.92
2023-03-11T22:11:07.883Z,3.00
2023-03-11T22:13:35.903Z,3.17
2023-03-11T22:16:06.297Z,2.40
2023-03-11T22:18:34.107Z,6.65
2023-03-11T22:21:02.013Z,10.07
2023-03-11T22:23:29.704Z,5.77
2023-03-11T22:25:57.660Z,5.53
2023-03-11T22:28:25.550Z,4.63
2023-03-11T22:30:53.397Z,3.05
2023-03-11T22:33:21.073Z,2.47
2023-03-11T22:35:56.544Z,3.53
2023-03-11T22:38:24.299Z,2.90
2023-03-11T22:40:52.194Z,2.63
2023-03-11T22:43:19.980Z,2.97
2023-03-11T22:45:47.909Z,2.75
2023-03-11T22:48:15.667Z,2.67
2023-03-11T22:50:47.414Z,2.90
2023-03-11T22:53:15.714Z,2.90
2023-03-11T22:55:44.584Z,3.03
2023-03-11T22:58:12.742Z,2.92
2023-03-11T23:00:40.468Z,2.90
2023-03-11T23:03:08.178Z,2.90
2023-03-11T23:05:41.924Z,3.05
2023-03-11T23:08:12.101Z,3.08
2023-03-11T23:10:45.095Z,2.72
2023-03-11T23:13:13.277Z,3.33
2023-03-11T23:15:42.766Z,3.10
2023-03-11T23:18:11.217Z,3.00
2023-03-11T23:20:40.660Z,2.97
2023-03-11T23:23:09.506Z,3.00
2023-03-11T23:25:38.116Z,3.30
2023-03-11T23:28:06.347Z,2.63
2023-03-11T23:30:34.027Z,2.85
2023-03-11T23:33:03.131Z,3.22
2023-03-11T23:35:31.547Z,3.45
2023-03-11T23:37:59.780Z,2.80
2023-03-11T23:40:27.467Z,3.10
2023-03-11T23:42:55.262Z,2.83
2023-03-11T23:45:22.998Z,3.00
2023-03-11T23:47:50.904Z,3.15
2023-03-11T23:50:19.039Z,3.20
2023-03-11T23:52:46.994Z,3.45
2023-03-11T23:55:14.702Z,3.63
2023-03-11T23:57:42.206Z,3.70
